In Rescue
 
Open Full Screen Window  High Contrast Mode
Wind Gusting 00 knots
06
April 20, 2024 8:58 AM EDT
Weather Information
Wind Direction
  290 °
Wind Speed
  06 kt (7 mph)
Wind Gust
  00 kt (0 mph)
Altimeter
29.91 in
Visibility
10 SM
Temperature
09° C
48° F
Dewpoint
-03° C
27° F
Humidity
43%
Sky Condition
Scattered @ 9,000 ft
Scattered @ 7,000 ft
VFR

METAR KFSO 201258Z AUTO 29006KT 10SM SCT070 SCT090 09/M03 A2991 RMK AO2 T00861031

FAA Disclaimer: The data displayed is for advisory purposes only and is not to be used for flight planning or operations.